Tiempo atmosférico en la estación meteorológica de Pamplona Aeropuerto, Navarra (459 m.)



Fecha
DESCASC
Temp. máxima en grados centígrados (hora)
DESCASC
Temp. mínima en grados centígrados (hora)
DESCASC
Temp. media en grados centígrados
DESCASC
Racha de viento máxima en m/sg (hora)
DESCASC
Velocidad máxima media en intervalos de 10 minutos(hora)
DESCASC
Precipitaciones diarias en mm
DESCASC
Precipitaciones de 00:00 a 06:00 en mm
DESCASC
Precipitaciones de 06:00 a 12:00 en mm
DESCASC
Precipitaciones de 12:00 a 18:00 en mm
DESCASC
Precipitaciones de 18:00 a 24:00 en mm
DESCASC
20-09-2018 33.6 (17:10) 15.6 (07:10) 24.6 -- (--) -- (--) 0 0 0 0 0
19-09-2018 31.3 (17:20) 16.7 (05:10) 24 8.33 (19:50) 6.11 (20:10) 0 0 0 0 0
18-09-2018 30.7 (17:50) 17.9 (07:40) 24.3 8.33 (19:40) 5.83 (19:10) 0 0 0 0 0
17-09-2018 32.1 (16:40) 14.8 (08:00) 23.4 10.28 (16:40) 5.28 (14:00) 0 0 0 0 0
16-09-2018 30.4 (16:00) 13 (00:00) 21.7 8.33 (19:50) 5.28 (20:00) 0 0 0 0 0
15-09-2018 28.6 (16:10) 11.1 (00:00) 19.9 8.89 (01:40) 5.56 (01:20) 0 0 0 0 0
14-09-2018 26.3 (14:30) 14.6 (00:00) 20.4 9.72 (15:00) 6.94 (15:00) 0 0 0 0 0
13-09-2018 24.3 (15:10) 15.7 (00:00) 20 11.39 (15:30) 8.33 (17:20) 0 0 0 0 0
12-09-2018 29.5 (17:10) 15.7 (00:00) 22.6 11.39 (17:40) 7.22 (17:50) 0.3 0 0.3 0 0
11-09-2018 30.5 (15:50) 12.4 (00:00) 21.4 11.67 (19:10) 7.22 (19:50) 0 0 0 0 0
10-09-2018 26.1 (16:10) 16.6 (00:00) 21.4 9.72 (18:00) 7.5 (18:00) 0 0 0 0 0
09-09-2018 27.4 (14:50) 16 (00:00) 21.7 12.5 (00:20) 8.06 (18:50) 8.8 1.9 6.9 0 0
08-09-2018 31.1 (16:30) 12.9 (00:00) 22 15.28 (21:20) 8.33 (21:10) 8 0 0 0 8
07-09-2018 25.2 (16:30) 12.9 (00:00) 19.1 11.39 (14:20) 7.78 (16:40) 0 0 0 0 0
06-09-2018 25 (15:00) 14.5 (00:00) 19.8 12.5 (15:20) 8.61 (16:40) 0 0 0 0 0
05-09-2018 26 (16:10) 15.8 (00:00) 20.9 12.5 (17:30) 9.17 (18:40) 9.5 0.8 4.1 0 4.6
04-09-2018 29 (14:50) 14.7 (00:00) 21.8 10.83 (18:10) 7.78 (18:10) 0.5 0 0 0 0.5
03-09-2018 30.2 (15:30) 11.6 (00:00) 20.9 11.39 (21:40) 7.78 (18:10) 0 0 0 0 0
02-09-2018 32.1 (17:20) 10.2 (00:00) 21.1 8.89 (18:50) 6.11 (18:50) 0 0 0 0 0
01-09-2018 29.3 (15:30) 15.2 (00:00) 22.2 10.28 (17:20) 7.22 (17:30) 0 0 0 0 0
31-08-2018 25.9 (14:50) 15 (00:00) 20.4 12.78 (14:50) 8.61 (13:50) 0 0 0 0 0
30-08-2018 27.2 (15:00) 16.3 (00:00) 21.8 11.39 (17:40) 8.06 (18:00) 0 0 0 0 0
29-08-2018 28.3 (15:20) 14.1 (00:00) 21.2 11.39 (19:30) 8.33 (19:50) 0 0 0 0 0
28-08-2018 35.5 (16:10) 15.4 (00:00) 25.4 20.56 (18:40) 13.33 (18:50) 0.7 0 0 0 0.7
27-08-2018 34.2 (16:40) 13.1 (00:00) 23.7 7.78 (19:40) 5.83 (19:50) 0 0 0 0 0
26-08-2018 29.4 (17:30) 12.2 (00:00) 20.8 8.89 (18:40) 6.11 (18:40) 0 0 0 0 0
25-08-2018 23.3 (14:10) 13.2 (00:00) 18.2 12.5 (15:20) 8.61 (20:20) 0 0 0 0 0
24-08-2018 24.2 (13:20) 15.9 (00:00) 20.1 12.78 (13:50) 9.17 (15:40) 0.1 0 0 0.1 0
23-08-2018 28.4 (15:10) 19.4 (00:00) 23.9 13.33 (16:50) 9.17 (16:50) 0 0 0 0 0

Gráficas

Temp. máximas Temp. mínimas Temp. medias Precipitaciones Rachas de viento máximas Velocidades máximas media en intervalos de 10 minutos

Datos horarios

Fecha y hora oficial Temperatura (ºC) Velocidad del viento (km/h) Dirección del viento Racha (km/h) Dirección de racha Precipitación (mm) Presión (hPa) Tendencia (hPa) Humedad (%)
2018-09-21 23:00:00 18.4 18 Norte 30 Norte 0 971.6 1.5 77
2018-09-21 22:00:00 18.9 16 Norte 28 Norte 0 971.1 1.5 75
2018-09-21 21:00:00 19.3 19 Norte 30 Norte 0 970.7 1.8 73
2018-09-21 20:00:00 20.1 24 Norte 35 Norte 0 970.1 1.7 68
2018-09-21 19:00:00 21.4 25 Norte 37 Norte 0 969.6 1.8 57
2018-09-21 18:00:00 23.5 27 Norte 45 Norte 0 968.9 0.9 50
2018-09-21 17:00:00 24.9 28 Norte 42 Norte 0 968.4 0.1 45
2018-09-21 16:00:00 25.7 23 Norte 35 Norte 0 967.8 -0.9 44
2018-09-21 15:00:00 25.7 24 Norte 35 Norte 0 968 -0.5 45
2018-09-21 14:00:00 25.8 19 Norte 32 Norte 0 968.3 0.1 45
2018-09-21 13:00:00 24.6 22 Norte 33 Norte 0 968.7 1.1 49
2018-09-21 12:00:00 24.8 20 Norte 28 Norte 0 968.5 1.3 45
2018-09-21 11:00:00 22.6 4 Oeste 11 Noroeste 0 968.2 1.8 66
2018-09-21 10:00:00 20.1 3 Este 9 Sudeste 0 967.6 1.8 79
2018-09-21 09:00:00 18.1 3 Nordeste 8 Nordeste 0 967.2 1.5 85
2018-09-21 08:00:00 16.5 5 Este 8 Sudeste 0 966.4 0.9 89
2018-09-21 07:00:00 16.6 4 Este 11 Sudeste 0 965.8 0.1 90
2018-09-21 06:00:00 16.8 0 Calma -- -- 0 965.7 0.2 88
2018-09-21 05:00:00 16.8 5 Sudeste 11 Sudeste 0 965.5 0.1 88
2018-09-21 04:00:00 17.4 2 Sudeste 8 Sudeste 0 965.7 0.3 83
2018-09-21 03:00:00 18.6 4 Norte 8 Noroeste 0 965.5 0.1 85
2018-09-21 02:00:00 19.6 5 Noroeste 11 Noroeste 0 965.4 0.5 81
2018-09-21 01:00:00 20.9 4 Oeste 9 Norte 0 965.4 0.8 69
2018-09-21 00:00:00 21.9 4 Norte 13 Nordeste 0 965.4 1.2 63
2018-09-20 23:00:00 23.2 4 Este 15 Nordeste 0 964.9 0.8 55
2018-09-20 22:00:00 25.3 8 Este 15 Sur 0 964.6 0.5 44
2018-09-20 21:00:00 26.6 12 Sur 18 Sur 0 964.2 0 41
2018-09-20 20:00:00 28.8 10 Sudoeste 15 Oeste 0 964.1 -0.7 37
2018-09-20 19:00:00 31.8 10 Sudoeste 21 Sudoeste 0 964.1 -1.2 30
2018-09-20 18:00:00 32.7 8 Sudoeste 22 Sudoeste 0 964.2 -1.8 29
2018-09-20 17:00:00 33.1 13 Sudoeste 26 Sur 0 964.8 -2.1 27
2018-09-20 16:00:00 32.8 10 Sudoeste 22 Sudoeste 0 965.3 -2.5 31
2018-09-20 15:00:00 30.6 6 Norte 15 Sudoeste 0 966 -2.3 40
2018-09-20 14:00:00 29.6 7 Sudoeste 13 Sudoeste 0 966.9 -1.9 46
2018-09-20 13:00:00 27.4 5 Oeste 13 Norte 0 967.8 -1 52
2018-09-20 12:00:00 24.5 3 Norte 11 Oeste 0 968.3 -0.5 58
2018-09-20 11:00:00 21.6 4 Oeste 9 Norte 0 968.8 0 72
2018-09-20 10:00:00 18.3 3 Norte 9 Norte 0 968.8 0 88
2018-09-20 09:00:00 16.4 0 Calma -- -- 0 968.8 -0.1 92
2018-09-20 08:00:00 16 3 Sudeste -- -- 0 968.8 -0.2 93
2018-09-20 07:00:00 15.8 0 Calma -- -- 0 968.8 -0.4 94
2018-09-20 06:00:00 15.9 5 Este 8 Este 0 968.9 -0.6 92
2018-09-20 05:00:00 17 3 Nordeste -- -- 0 969 -0.5 91
2018-09-20 04:00:00 17.2 4 Sudeste -- -- 0 969.2 -0.3 91
2018-09-20 03:00:00 17.9 3 Sudeste 5 Sudeste 0 969.5 0 90
2018-09-20 02:00:00 18.5 3 Oeste 8 Oeste 0 969.5 0.1 88
2018-09-20 01:00:00 19.3 3 Sudeste 5 Sur 0 969.5 0.6 86
2018-09-20 00:00:00 19.7 3 Noroeste 13 Norte 0 969.5 1 85
2018-09-19 23:00:00 20.3 9 Noroeste 17 Noroeste 0 969.4 1.6 83
2018-09-19 22:00:00 21.2 15 Noroeste 24 Norte 0 968.9 1.8 80
2018-09-19 21:00:00 22.4 19 Noroeste 30 Noroeste 0 968.5 1.6 76
2018-09-19 20:00:00 25.1 21 Noroeste 30 Noroeste 0 967.8 0.7 66
2018-09-19 19:00:00 28.6 18 Norte 28 Nordeste 0 967.1 -0.5 47
2018-09-19 18:00:00 29.8 10 Norte 18 Norte 0 966.9 -1.2 38
2018-09-19 17:00:00 30.9 7 Oeste 15 Noroeste 0 967.1 -1.6 35
2018-09-19 16:00:00 31 11 Oeste 18 Noroeste 0 967.6 -1.7 37
2018-09-19 15:00:00 29.7 7 Oeste 15 Oeste 0 968.1 -1.6 43
2018-09-19 14:00:00 28 4 Sur 17 Sudeste 0 968.7 -1.1 51
2018-09-19 13:00:00 25.7 7 Este 13 Sudeste 0 969.3 0 58
2018-09-19 12:00:00 23.6 5 Nordeste 9 Nordeste 0 969.7 1 64
2018-09-19 11:00:00 21.7 3 Nordeste 9 Noroeste 0 969.8 1.8 72
2018-09-19 10:00:00 18.8 4 Norte 11 Nordeste 0 969.3 1.6 85
2018-09-19 09:00:00 17.8 5 Nordeste 11 Nordeste 0 968.7 1.2 88
2018-09-19 08:00:00 17.7 4 Nordeste 9 Nordeste 0 968 0.1 90
2018-09-19 07:00:00 17.4 4 Este 8 Sudeste 0 967.7 0 92
2018-09-19 06:00:00 16.9 3 Este 5 Este 0 967.5 0 92
2018-09-19 05:00:00 17 0 Calma 8 Nordeste 0 967.9 0.2 93
2018-09-19 04:00:00 17.4 2 Nordeste 5 Nordeste 0 967.7 0.1 92
2018-09-19 03:00:00 17.8 4 Nordeste 5 Nordeste 0 967.5 0.1 89
2018-09-19 02:00:00 18.6 0 Calma 8 Noroeste 0 967.7 0.4 88
2018-09-19 01:00:00 19.1 7 Noroeste 11 Noroeste 0 967.6 1.1 88
2018-09-19 00:00:00 19.7 5 Noroeste 18 Noroeste 0 967.4 2.1 86
2018-09-18 23:00:00 20.3 14 Noroeste 24 Noroeste 0 967.3 2.8 84
2018-09-18 22:00:00 21.2 19 Noroeste 28 Noroeste 0 966.5 2.7 81
2018-09-18 21:00:00 22.6 13 Noroeste 24 Norte 0 965.3 2.2 76
2018-09-18 20:00:00 24.6 10 Noroeste 30 Noroeste 0 964.5 1.2 67
2018-09-18 19:00:00 28.4 18 Noroeste 28 Norte 0 963.8 0.3 48
2018-09-18 18:00:00 29.8 6 Oeste 18 Sudoeste 0 963.1 -0.8 37
2018-09-18 17:00:00 29.9 7 Noroeste 17 Oeste 0 963.3 -1.2 39
2018-09-18 16:00:00 29.8 9 Sudoeste -- -- -- 963.5 -1.4 40
2018-09-18 15:00:00 29.1 9 Sur 24 Sudoeste 0 963.9 -1.5 43
2018-09-18 14:00:00 28.7 13 Sudoeste 28 Sudoeste 0 964.5 -1.2 45
2018-09-18 13:00:00 27.1 10 Sudoeste 28 Sudoeste 0 964.9 -0.2 50
2018-09-18 12:00:00 26.7 7 Sur 17 Sur 0 965.4 0.6 53
2018-09-18 11:00:00 23.7 8 Sur 17 Sudoeste 0 965.7 1.4 64
2018-09-18 10:00:00 22.8 5 Sudeste 15 Sudoeste 0 965.1 1.1 66
2018-09-18 09:00:00 19.4 5 Nordeste 9 Nordeste 0 964.8 0.7 77
2018-09-18 08:00:00 18.3 3 Noroeste 5 Noroeste 0 964.3 0.2 79
2018-09-18 07:00:00 19 3 Nordeste 9 Oeste 0 964 0 77
2018-09-18 06:00:00 19.7 0 Calma 11 Sudeste 0 964.1 0.1 74
2018-09-18 05:00:00 20.6 5 Sur 11 Sur 0 964.1 0.1 72
2018-09-18 04:00:00 21.6 8 Sur 15 Sur 0 964 -0.2 68
2018-09-18 03:00:00 22.1 9 Sur 18 Sudeste 0 964 -0.3 66
2018-09-18 02:00:00 22.5 10 Sur 22 Este 0 964 -0.5 65
2018-09-18 01:00:00 23.4 14 Sudeste 26 Sudeste 0 964.2 -0.2 62
2018-09-18 00:00:00 23.8 17 Sudeste 28 Sudeste 0 964.3 0.5 61
2018-09-17 23:00:00 23.4 10 Sudeste 17 Sur 0 964.5 1.7 50
2018-09-17 22:00:00 23.8 12 Sur 17 Sur 0 964.4 2.2 49
2018-09-17 21:00:00 25.7 14 Oeste 30 Sudoeste 0 963.8 1.4 44
2018-09-17 20:00:00 27.4 15 Sur 28 Sur 0 962.8 -0.5 37
2018-09-17 19:00:00 29.7 15 Sudeste 26 Sudeste 0 962.2 -1.9 31
2018-09-17 18:00:00 30.9 16 Sur 26 Sudeste 0 962.4 -2.5 28
2018-09-17 17:00:00 31.7 10 Sur 37 Sur 0 963.3 -2.4 29
2018-09-17 16:00:00 31.4 13 Sur 30 Sudoeste 0 964.1 -2.2 31
2018-09-17 15:00:00 30.9 17 Sudoeste 30 Sudoeste 0 964.9 -2 33
2018-09-17 14:00:00 29.9 19 Sudoeste 30 Sur 0 965.7 -1.5 38
2018-09-17 13:00:00 29.2 13 Sur 24 Sur 0 966.3 -1.3 40
2018-09-17 12:00:00 26.3 5 Sudoeste 11 Sudoeste 0 966.9 -1 56
2018-09-17 11:00:00 22.7 4 Oeste 11 Oeste 0 967.2 -0.5 68
2018-09-17 10:00:00 19.9 0 Calma 8 Nordeste 0 967.6 0.3 80
2018-09-17 09:00:00 16 3 Sur 8 Sudeste 0 967.9 0.7 95
2018-09-17 08:00:00 15.1 0 Calma 9 Oeste 0 967.7 0.2 94
2018-09-17 07:00:00 15.5 6 Oeste 11 Oeste 0 967.3 -0.5 94
2018-09-17 06:00:00 16.2 4 Sur 8 Sur 0 967.2 -0.9 92
2018-09-17 05:00:00 16.3 0 Calma -- -- 0 967.5 -0.8 90
2018-09-17 04:00:00 16.8 0 Calma 8 Sudeste 0 967.8 -0.4 92
2018-09-17 03:00:00 17.3 0 Calma 8 Noroeste 0 968.1 -0.3 91
2018-09-17 02:00:00 17.5 6 Noroeste 8 Oeste 0 968.3 -0.1 90
2018-09-17 01:00:00 18.1 3 Sudoeste 8 Noroeste 0 968.2 -0.1 88
2018-09-17 00:00:00 18.4 4 Oeste 9 Norte 0 968.4 0.5 88
2018-09-16 23:00:00 18.9 7 Noroeste 11 Noroeste 0 968.4 1.3 86
2018-09-16 22:00:00 19.6 7 Oeste 21 Noroeste 0 968.3 2.1 84
2018-09-16 21:00:00 20.7 15 Noroeste 28 Noroeste 0 967.9 1.8 80
2018-09-16 20:00:00 22.8 19 Noroeste 30 Noroeste 0 967.1 0.6 73
2018-09-16 19:00:00 27.7 14 Norte 18 Norte 0 966.2 -0.8 53
2018-09-16 18:00:00 29.4 10 Nordeste 17 Norte 0 966.1 -1.3 33
2018-09-16 17:00:00 29.9 9 Norte 21 Norte 0 966.5 -1.4 33
2018-09-16 16:00:00 30.3 9 Noroeste 22 Oeste 0 967 -1.5 36
2018-09-16 15:00:00 29.1 6 Oeste 18 Noroeste 0 967.4 -1.5 41
2018-09-16 14:00:00 28.2 7 Oeste 17 Norte 0 967.9 -1.6 43
2018-09-16 13:00:00 26.3 6 Norte 15 Este 0 968.5 -0.9 48
2018-09-16 12:00:00 24.1 6 Norte 11 Nordeste 0 968.9 -0.3 54
2018-09-16 11:00:00 21.5 4 Nordeste 8 Nordeste 0 969.5 0.8 64
2018-09-16 10:00:00 18.9 3 Oeste 8 Nordeste 0 969.4 1.1 73
2018-09-16 09:00:00 15.6 0 Calma 5 Sur 0 969.2 1.4 84
2018-09-16 08:00:00 13.3 0 Calma 5 Sudeste 0 968.7 0.9 90
2018-09-16 07:00:00 13.3 0 Calma 4 Nordeste 0 968.3 0.2 89
2018-09-16 06:00:00 13.9 2 Oeste 5 Oeste 0 967.8 -0.6 88
2018-09-16 05:00:00 14.6 0 Calma 5 Sudoeste 0 967.8 -1.1 85
2018-09-16 04:00:00 15 2 Sur 5 Oeste 0 968.1 -0.7 85
2018-09-16 03:00:00 16 0 Calma 5 Norte 0 968.4 -0.6 83
2018-09-16 02:00:00 16.9 2 Norte 8 Oeste 0 968.9 0.1 80
2018-09-16 01:00:00 17.6 6 Este 9 Este 0 968.8 0.5 76
2018-09-16 00:00:00 18.1 7 Este 9 Este 0 969 1.3 67
2018-09-15 23:00:00 19.5 2 Sudeste 8 Sur 0 968.8 1.7 60
2018-09-15 22:00:00 21.8 4 Este 11 Noroeste 0 968.3 1.4 55
2018-09-15 21:00:00 23 8 Noroeste 17 Este 0 967.7 1 51
2018-09-15 20:00:00 25.7 13 Sudeste 18 Sudeste 0 967.1 0.4 41
2018-09-15 19:00:00 26.8 12 Este 24 Este 0 966.9 -0.2 42
2018-09-15 18:00:00 27.6 14 Este 21 Este 0 966.7 -1.4 44
2018-09-15 17:00:00 28.2 5 Sudeste 17 Sudeste 0 966.7 -1.9 42
2018-09-15 16:00:00 27.8 8 Nordeste 17 Nordeste 0 967.1 -2.1 43
2018-09-15 15:00:00 25.7 9 Nordeste 18 Nordeste 0 968.1 -1.8 49
2018-09-15 14:00:00 25 6 Este 15 Sur 0 968.6 -1.6 50
2018-09-15 13:00:00 23.8 4 Norte 17 Nordeste 0 969.2 -1 51
2018-09-15 12:00:00 21.5 4 Norte 13 Oeste 0 969.9 -0.1 56
2018-09-15 11:00:00 18.8 4 Nordeste 11 Nordeste 0 970.2 0.7 65
2018-09-15 10:00:00 17.2 3 Este 9 Este 0 970.2 1 70
2018-09-15 09:00:00 13.9 4 Este 8 Este 0 970 0.8 84
2018-09-15 08:00:00 11.1 6 Sudeste -- -- 0 969.5 0.2 91
2018-09-15 07:00:00 11.9 5 Sudeste 11 Sudeste 0 969.2 0 89
2018-09-15 06:00:00 13.2 0 Calma 13 Noroeste 0 969.2 0 83
2018-09-15 05:00:00 14.1 8 Noroeste 24 Norte 0 969.3 -0.1 81
2018-09-15 04:00:00 14.8 13 Norte 30 Norte 0 969.2 -0.4 80
2018-09-15 03:00:00 15.4 16 Noroeste 28 Norte 0 969.2 -0.3 78
2018-09-15 02:00:00 15.9 17 Noroeste 32 Norte 0 969.4 -0.1 75
2018-09-15 01:00:00 16.2 17 Noroeste 26 Norte 0 969.6 0.3 75
2018-09-15 00:00:00 16.5 18 Norte 30 Noroeste 0 969.5 0.7 74
2018-09-14 23:00:00 16.9 20 Noroeste 32 Norte 0 969.5 1.5 74
2018-09-14 22:00:00 17.9 18 Norte 26 Norte 0 969.3 1.8 78
2018-09-14 21:00:00 19 17 Norte 26 Norte 0 968.8 1.5 75
2018-09-14 20:00:00 20.5 21 Norte 33 Norte 0 968 0.8 69
2018-09-14 19:00:00 22.1 23 Norte 33 Norte 0 967.5 0.2 60
2018-09-14 18:00:00 23.9 22 Norte 35 Norte 0 967.3 -0.4 54
2018-09-14 17:00:00 24.7 23 Norte 33 Norte 0 967.2 -0.8 52
2018-09-14 16:00:00 25.7 20 Norte 32 Norte 0 967.3 -1 48
2018-09-14 15:00:00 26.1 25 Noroeste 35 Norte 0 967.7 -0.9 48
2018-09-14 14:00:00 25.3 15 Noroeste 26 Norte 0 968 -0.6 52
2018-09-14 13:00:00 24.1 12 Noroeste 21 Norte 0 968.3 -0.2 54
2018-09-14 12:00:00 22.4 9 Noroeste 18 Norte 0 968.6 0.3 59
2018-09-14 11:00:00 20.8 8 Norte 21 Norte 0 968.6 0.5 63
2018-09-14 10:00:00 19.3 11 Norte 15 Noroeste 0 968.5 0.7 69
2018-09-14 09:00:00 15.7 9 Noroeste 15 Noroeste 0 968.3 0.5 85
2018-09-14 08:00:00 15 13 Norte 17 Norte 0 968.1 -0.1 85
2018-09-14 07:00:00 15.3 13 Noroeste 17 Noroeste 0 967.8 -0.6 85
2018-09-14 06:00:00 15.6 10 Norte 15 Norte 0 967.8 -1 85
2018-09-14 05:00:00 15.8 10 Norte 17 Noroeste 0 968.2 -0.8 84
2018-09-14 04:00:00 15.5 10 Norte 17 Norte 0 968.4 -0.8 85
2018-09-14 03:00:00 14.8 3 Nordeste 15 Norte 0 968.8 -0.3 86
2018-09-14 02:00:00 15.8 10 Norte 21 Norte 0 969 -0.3 83
2018-09-14 01:00:00 16 13 Norte 21 Norte 0 969.2 -0.1 83
2018-09-14 00:00:00 16.3 12 Norte 17 Norte 0 969.1 0.2 82
2018-09-13 23:00:00 16.5 8 Noroeste 24 Norte 0 969.3 0.9 80
2018-09-13 22:00:00 17.1 16 Norte 28 Norte 0 969.3 1 77
2018-09-13 21:00:00 17.8 19 Norte 33 Norte 0 968.9 0.6 72
2018-09-13 20:00:00 19.4 24 Norte 37 Norte 0 968.4 -0.1 65
2018-09-13 19:00:00 20.6 22 Norte 35 Norte 0 968.3 -0.5 61
2018-09-13 18:00:00 21.8 27 Norte 41 Norte 0 968.3 -1 57
2018-09-13 17:00:00 22.9 26 Norte 41 Norte 0 968.5 -1.2 55
2018-09-13 16:00:00 22.8 24 Norte 41 Norte 0 968.8 -1.2 55
2018-09-13 15:00:00 22.6 21 Norte 35 Norte 0 969.3 -0.8 56
2018-09-13 14:00:00 21.6 24 Norte 33 Norte 0 969.7 -0.3 62
2018-09-13 13:00:00 21.1 22 Norte 33 Norte 0 970 0.3 66
2018-09-13 12:00:00 21.4 22 Noroeste 30 Noroeste 0 970.1 0.5 69
2018-09-13 11:00:00 20.1 18 Norte 24 Norte 0 970 0.5 72
2018-09-13 10:00:00 19.4 14 Norte 24 Norte 0 969.7 0.4 74
2018-09-13 09:00:00 18.1 10 Norte 18 Noroeste 0 969.6 0.3 77
2018-09-13 08:00:00 18 14 Norte 22 Norte 0 969.5 0 76
2018-09-13 07:00:00 18 14 Norte 21 Norte 0 969.3 -0.2 80
2018-09-13 06:00:00 18.2 13 Norte 24 Norte 0 969.3 -0.5 80
2018-09-13 05:00:00 18.3 13 Norte 21 Noroeste 0 969.5 -0.7 81
2018-09-13 04:00:00 18.5 12 Norte 21 Norte 0 969.5 -1 79
2018-09-13 03:00:00 18.9 15 Noroeste 22 Norte 0 969.8 -0.6 79
2018-09-13 02:00:00 19.2 15 Noroeste 22 Norte 0 970.2 -0.3 80
2018-09-13 01:00:00 19.4 15 Norte 22 Noroeste 0 970.5 0.5 80
2018-09-13 00:00:00 19.6 14 Noroeste 21 Norte 0 970.4 1 83
2018-09-12 23:00:00 19.5 10 Noroeste 15 Noroeste 0 970.5 1.5 86
2018-09-12 22:00:00 19.9 11 Norte 28 Norte 0 970 1 84
2018-09-12 21:00:00 20 24 Norte 33 Noroeste 0 969.4 0.9 86
2018-09-12 20:00:00 21 12 Norte 17 Norte 0 969 0.5 82
2018-09-12 19:00:00 21.6 10 Nordeste 33 Este 0 969 0.2 76
2018-09-12 18:00:00 24.7 22 Este 41 Este 0 968.5 -0.9 54
2018-09-12 17:00:00 28.4 3 Este 22 Oeste 0 968.5 -1.6 41
2018-09-12 16:00:00 28.4 9 Sudoeste 22 Sudoeste 0 968.8 -1.8 42
2018-09-12 15:00:00 27.9 15 Sudoeste 28 Sudoeste 0 969.4 -1.6 43
2018-09-12 14:00:00 27.5 14 Sudoeste 26 Sudoeste 0 970.1 -0.9 47
2018-09-12 13:00:00 26.4 8 Sur 21 Sudoeste 0 970.6 -0.1 50
2018-09-12 12:00:00 25.1 12 Sudoeste 21 Sudoeste 0 971 0.5 55
2018-09-12 11:00:00 21.2 4 Norte 9 Noroeste 0 971 0.8 75
2018-09-12 10:00:00 19.7 4 Norte 8 Norte 0 970.7 0.9 81
2018-09-12 09:00:00 16.1 2 Oeste 9 Noroeste 0 970.5 0.4 95
2018-09-12 08:00:00 15.8 5 Oeste 9 Oeste 0 970.2 0 95
2018-09-12 07:00:00 16 8 Noroeste 9 Noroeste 0.3 969.8 -0.3 95
2018-09-12 06:00:00 16.3 4 Este 9 Oeste 0 970.1 -0.1 91
2018-09-12 05:00:00 16.6 6 Oeste 11 Noroeste 0 970.2 -0.6 89
2018-09-12 04:00:00 17.1 0 Calma 11 Norte 0 970.1 -0.9 89
2018-09-12 03:00:00 17.4 4 Sudoeste 8 Sudoeste 0 970.2 -0.9 89
2018-09-12 02:00:00 17.8 4 Este 5 Sudeste 0 970.8 -0.2 85
2018-09-12 01:00:00 18.5 0 Calma 5 Norte 0 971 0.2 84
2018-09-12 00:00:00 18.8 4 Noroeste 8 Oeste 0 971.1 0.8 81
2018-09-11 23:00:00 19.4 4 Norte 17 Este 0 971 1 78
2018-09-11 22:00:00 20.3 11 Este 22 Este 0 970.8 0.9 71
2018-09-11 21:00:00 20.9 10 Nordeste 33 Este 0 970.3 0.3 69
2018-09-11 20:00:00 22.5 19 Este 42 Este 0 970 -0.4 64
2018-09-11 19:00:00 27.2 13 Sudeste 22 Este 0 969.9 -0.6 47
2018-09-11 18:00:00 27.2 12 Sur 26 Sur 0 970 -1.2 42
2018-09-11 17:00:00 27.5 16 Sur 32 Sudoeste 0 970.4 -1.3 42
2018-09-11 16:00:00 30.3 21 Sur 37 Sur 0 970.5 -2 32
2018-09-11 15:00:00 28.5 9 Sur 18 Sur 0 971.2 -1.8 46
2018-09-11 14:00:00 28.2 8 Oeste 17 Sudoeste 0 971.7 -1.6 50
2018-09-11 13:00:00 25.7 6 Este 11 Sudeste 0 972.5 -0.7 57
2018-09-11 12:00:00 23.3 4 Oeste 9 Oeste 0 973 0 63
2018-09-11 11:00:00 19.9 3 Norte 8 Nordeste 0 973.3 0.5 73
2018-09-11 10:00:00 17 3 Nordeste 8 Nordeste 0 973.2 0.9 83
2018-09-11 09:00:00 14.6 0 Calma 5 Sudeste 0 973 0.8 95
2018-09-11 08:00:00 12.5 0 Calma 8 Sudeste 0 972.8 0.5 95
2018-09-11 07:00:00 13 4 Sudeste 8 Sur 0 972.3 0 95
2018-09-11 06:00:00 12.8 0 Calma 5 Sudeste 0 972.2 -0.3 94
2018-09-11 05:00:00 13.5 2 Sur -- -- -- 972.3 -0.3 94
2018-09-11 04:00:00 13.8 0 Calma 5 Sudeste 0 972.3 -0.6 94
2018-09-11 03:00:00 14.2 5 Sudeste 8 Sur 0 972.5 -0.4 93
2018-09-11 02:00:00 15 4 Sudeste 5 Sudeste 0 972.6 -0.2 92
2018-09-11 01:00:00 16.3 2 Oeste 5 Norte 0 972.9 0.4 89
2018-09-11 00:00:00 16.7 5 Noroeste 15 Noroeste 0 972.9 1.3 86
2018-09-10 23:00:00 17.4 10 Noroeste 17 Noroeste 0 972.8 1.5 85
2018-09-10 22:00:00 18.1 13 Noroeste 24 Noroeste 0 972.5 1.3 82
2018-09-10 21:00:00 19.1 15 Noroeste 24 Norte 0 971.6 0.5 77
2018-09-10 20:00:00 21 15 Noroeste 28 Noroeste 0 971.3 -0.1 69
2018-09-10 19:00:00 22.6 21 Norte 33 Noroeste 0 971.2 -0.6 64
2018-09-10 18:00:00 24 27 Noroeste 35 Noroeste 0 971.1 -1.1 59
2018-09-10 17:00:00 25.2 21 Noroeste 32 Noroeste 0 971.4 -1 56
2018-09-10 16:00:00 25.5 15 Noroeste 32 Noroeste 0 971.8 -0.8 54
2018-09-10 15:00:00 25.3 14 Noroeste 26 Noroeste 0 972.2 -0.5 56
2018-09-10 14:00:00 24.2 13 Noroeste 30 Noroeste 0 972.4 -0.2 58
2018-09-10 13:00:00 22.8 15 Norte 26 Noroeste 0 972.6 0.4 63
2018-09-10 12:00:00 21.5 16 Noroeste 28 Noroeste 0 972.7 0.9 66
2018-09-10 11:00:00 21.9 20 Noroeste 28 Noroeste 0 972.6 0.9 66
2018-09-10 10:00:00 20.4 19 Noroeste 30 Norte 0 972.2 0.9 73
2018-09-10 09:00:00 18.6 14 Noroeste 21 Norte 0 971.8 0.8 80
2018-09-10 08:00:00 17 16 Norte 22 Noroeste 0 971.7 0.8 86
2018-09-10 07:00:00 17.7 13 Noroeste 21 Noroeste 0 971.3 0.4 85
2018-09-10 06:00:00 17.3 12 Noroeste 21 Noroeste 0 971 -0.2 87
2018-09-10 05:00:00 17 14 Noroeste 21 Noroeste 0 970.9 -0.3 88
2018-09-10 04:00:00 16.9 10 Noroeste 18 Norte 0 970.9 -0.2 87
2018-09-10 03:00:00 17.4 12 Noroeste 18 Norte 0 971.2 0.4 86
2018-09-10 02:00:00 17.6 10 Noroeste 18 Noroeste 0 971.2 0.5 86
2018-09-10 01:00:00 17.8 11 Norte 22 Noroeste 0 971.1 0.9 86
2018-09-10 00:00:00 18.4 17 Norte 30 Norte 0 970.8 1.7 83
2018-09-09 23:00:00 19 20 Norte 30 Norte 0 970.7 2.2 81
2018-09-09 22:00:00 19 15 Norte 28 Noroeste 0 970.2 1.6 81
2018-09-09 21:00:00 19.4 13 Noroeste 30 Norte 0 969.1 1.5 80
2018-09-09 20:00:00 20.2 24 Norte 35 Norte 0 968.5 0.9 77
2018-09-09 19:00:00 22 25 Noroeste 39 Noroeste 0 968.6 0.9 72
2018-09-09 18:00:00 24.6 24 Norte 35 Norte 0 967.6 -0.6 61
2018-09-09 17:00:00 24.9 17 Norte 28 Norte 0 967.6 -0.8 59
2018-09-09 16:00:00 25.4 18 Norte 24 Norte 0 967.7 -1.1 53
2018-09-09 15:00:00 26.3 5 Norte 17 Norte 0 968.2 -0.8 47
2018-09-09 14:00:00 25.5 5 Noroeste 15 Norte 0 968.4 -0.5 52
2018-09-09 13:00:00 24.5 9 Noroeste 13 Norte 0 968.8 0.4 56
2018-09-09 12:00:00 22.8 4 Este 13 Noroeste 0 969 0.7 66
2018-09-09 11:00:00 20.6 7 Norte 13 Noroeste 0 968.9 0.7 76
2018-09-09 10:00:00 18.7 3 Nordeste 9 Sudoeste 0 968.4 0 85
2018-09-09 09:00:00 16.8 8 Sudoeste 21 Este 0.7 968.3 0.3 96
2018-09-09 08:00:00 16.2 11 Este 17 Este 5.7 968.2 0.6 97
2018-09-09 07:00:00 16.4 4 Sur 8 Este 0.5 968.4 1 95
2018-09-09 06:00:00 16.4 9 Noroeste 11 Noroeste 0.5 968 0.8 94
2018-09-09 05:00:00 16.4 10 Sudeste 13 Sudeste 0.5 967.6 0.6 91
2018-09-09 04:00:00 16.3 4 Sudeste 8 Sudeste 0 967.4 0.1 91
2018-09-09 03:00:00 16.5 0 Calma 11 Noroeste 0 967.2 0 90
2018-09-09 02:00:00 17.4 3 Sudoeste 24 Sudeste 0 967 -0.6 84
2018-09-09 01:00:00 17.3 7 Sudeste 45 Sudeste 0.9 967.3 -0.3 87
2018-09-09 00:00:00 17.1 15 Este 28 Sur 3.3 967.2 1.3 89
2018-09-08 23:00:00 17.6 10 Sur 21 Sur 3.8 967.6 3.1 88
2018-09-08 22:00:00 18.4 9 Noroeste 55 Sudoeste 0.9 967.6 3.4 80
2018-09-08 21:00:00 22.8 18 Sudoeste 41 Sudoeste 0 965.9 1.7 57
2018-09-08 20:00:00 26 10 Sur 26 Sur 0 964.5 0.3 45
2018-09-08 19:00:00 27.7 15 Sur 22 Sur 0 964.2 -0.1 40
2018-09-08 18:00:00 27.8 16 Sur 28 Sur 0 964.2 -0.6 38
2018-09-08 17:00:00 29.1 21 Sur 33 Sur 0 964.2 -1.1 36
2018-09-08 16:00:00 30.4 24 Sur 37 Sur 0 964.3 -1.5 35
2018-09-08 15:00:00 29.9 24 Sur 33 Sur 0 964.8 -1.6 37
2018-09-08 14:00:00 28.1 10 Sudeste 35 Este 0 965.3 -1.6 43
2018-09-08 13:00:00 27.2 14 Sur 24 Sur 0 965.8 -0.8 47
2018-09-08 12:00:00 23.1 4 Norte 15 Nordeste 0 966.4 0.1 58
2018-09-08 11:00:00 19 4 Nordeste 9 Norte 0 966.9 0.9 70
2018-09-08 10:00:00 17.7 6 Sudeste 11 Sudeste 0 966.6 1 75
2018-09-08 09:00:00 14.5 0 Calma 8 Sudeste 0 966.3 0.6 91
2018-09-08 08:00:00 13.2 2 Oeste 8 Este 0 966 0.1 92
2018-09-08 07:00:00 13.4 4 Este 5 Sudeste 0 965.6 -0.8 92
2018-09-08 06:00:00 13.1 4 Nordeste 5 Nordeste 0 965.7 -0.6 91
2018-09-08 05:00:00 13.7 0 Calma 5 Nordeste 0 965.9 -0.5 91
2018-09-08 04:00:00 13.4 2 Sudeste -- -- 0 966.4 -0.3 92
2018-09-08 03:00:00 13.6 0 Calma -- -- 0 966.3 -0.3 91
2018-09-08 02:00:00 14.3 5 Este 8 Sudeste 0 966.4 -0.1 87
2018-09-08 01:00:00 15.5 3 Noroeste 11 Noroeste 0 966.7 0.8 86
2018-09-08 00:00:00 16.4 9 Noroeste 17 Norte 0 966.6 1.4 84
2018-09-07 23:00:00 16.7 9 Noroeste 21 Noroeste 0 966.5 1.9 83
2018-09-07 22:00:00 17.5 14 Noroeste 22 Noroeste 0 965.9 1.3 81
2018-09-07 21:00:00 18.4 15 Noroeste 26 Noroeste 0 965.2 0.8 76
2018-09-07 20:00:00 20.3 15 Norte 30 Norte 0 964.6 0 65
2018-09-07 19:00:00 21.5 21 Norte 32 Nordeste 0 964.6 -0.1 57
2018-09-07 18:00:00 22.4 22 Nordeste 39 Norte 0 964.4 -0.8 55
2018-09-07 17:00:00 23.8 25 Norte 39 Noroeste 0 964.6 -0.9 53
2018-09-07 16:00:00 24.3 26 Noroeste 35 Norte 0 964.7 -1.4 51
2018-09-07 15:00:00 23.9 24 Noroeste 41 Noroeste 0 965.2 -1.2 52
2018-09-07 14:00:00 23.1 20 Noroeste 33 Norte 0 965.5 -0.8 56
2018-09-07 13:00:00 21.4 18 Norte 32 Nordeste 0 966.1 0.1 59
2018-09-07 12:00:00 20.3 18 Norte 28 Norte 0 966.4 0.5 63
2018-09-07 11:00:00 19.2 15 Noroeste 22 Noroeste 0 966.3 0.6 69
2018-09-07 10:00:00 18.1 13 Noroeste 17 Norte 0 966 0.6 75
2018-09-07 09:00:00 15.3 6 Noroeste 9 Noroeste 0 965.9 0.4 86
2018-09-07 08:00:00 13 4 Sur 8 Nordeste 0 965.7 0.3 91
2018-09-07 07:00:00 14.2 4 Noroeste 11 Norte 0 965.4 -0.2 87
2018-09-07 06:00:00 13.8 7 Noroeste 15 Noroeste 0 965.5 -0.2 89
2018-09-07 05:00:00 14.2 14 Noroeste -- -- -- 965.4 -0.6 89
2018-09-07 04:00:00 14.8 10 Noroeste 17 Norte 0 965.6 -0.4 86
2018-09-07 03:00:00 16.1 11 Norte 24 Nordeste 0 965.7 -0.4 79
2018-09-07 02:00:00 15.9 11 Norte 18 Noroeste 0 966 -0.1 85
2018-09-07 01:00:00 15.9 15 Norte 21 Norte 0 966 0.1 86
2018-09-07 00:00:00 16.3 14 Norte 24 Norte 0 966.1 0.7 85
2018-09-06 23:00:00 16.2 17 Norte 24 Norte 0 966.1 1.4 83
2018-09-06 22:00:00 17 13 Noroeste 30 Norte 0 965.9 1.5 84
2018-09-06 21:00:00 17.9 19 Norte 32 Norte 0 965.4 1.5 76
2018-09-06 20:00:00 18.9 17 Norte 30 Norte 0 964.7 0.8 70
2018-09-06 19:00:00 20.3 23 Norte 37 Nordeste 0 964.4 0.6 64
2018-09-06 18:00:00 21.5 25 Norte 37 Norte 0 963.9 0.1 58
2018-09-06 17:00:00 21.3 25 Norte 42 Norte 0 963.9 0 61
2018-09-06 16:00:00 22.6 28 Norte 45 Noroeste 0 963.8 -0.3 57
2018-09-06 15:00:00 24.3 25 Norte 39 Norte 0 963.8 -0.6 54
2018-09-06 14:00:00 23.9 23 Norte 35 Norte 0 963.9 -0.5 54
2018-09-06 13:00:00 22.1 20 Noroeste 32 Norte 0 964.1 -0.2 62
2018-09-06 12:00:00 19.8 19 Noroeste 26 Noroeste 0 964.4 0.4 72
2018-09-06 11:00:00 19.4 12 Noroeste 21 Noroeste 0 964.4 0.6 73
2018-09-06 10:00:00 18.1 13 Noroeste 18 Noroeste 0 964.3 1 77
2018-09-06 09:00:00 15.8 5 Norte 9 Norte 0 964 0.9 89
2018-09-06 08:00:00 14.7 0 Calma 13 Sudeste 0 963.8 0.5 91
2018-09-06 07:00:00 14.9 4 Sudeste 15 Noroeste 0 963.3 -0.1 89
2018-09-06 06:00:00 15.1 9 Noroeste 21 Norte 0 963.1 -0.3 88
2018-09-06 05:00:00 15.6 12 Norte 18 Norte 0 963.3 -0.6 86
2018-09-06 04:00:00 15.7 4 Noroeste 9 Noroeste 0 963.4 -0.4 90
2018-09-06 03:00:00 15.7 6 Noroeste 11 Noroeste 0 963.4 -0.8 89
2018-09-06 02:00:00 15.8 7 Noroeste 13 Noroeste 0 963.9 0 89
2018-09-06 01:00:00 16.5 9 Noroeste 13 Oeste 0 963.8 0.2 87
2018-09-06 00:00:00 16.9 9 Noroeste 21 Noroeste 0 964.2 0.7 87
2018-09-05 23:00:00 17.1 12 Noroeste 28 Noroeste 0 963.9 1.7 89
2018-09-05 22:00:00 17.7 18 Noroeste 26 Norte 0 963.6 1.5 89
2018-09-05 21:00:00 17.9 12 Noroeste 26 Noroeste 0 963.5 1 92
2018-09-05 20:00:00 17.8 12 Noroeste 24 Nordeste 0 962.2 0.4 95
2018-09-05 19:00:00 17.4 15 Nordeste 45 Norte 4.6 962.1 0.1 96
2018-09-05 18:00:00 20.6 30 Noroeste 45 Norte 0 962.5 -0.1 73
2018-09-05 17:00:00 23.3 22 Norte 35 Norte 0 961.8 -1.5 63
2018-09-05 16:00:00 25.1 15 Norte 26 Norte 0 962 -1.5 57
2018-09-05 15:00:00 24.4 15 Norte 22 Noroeste 0 962.6 -1.2 60
2018-09-05 14:00:00 22.2 15 Noroeste 21 Noroeste 0 963.3 -1 67
2018-09-05 13:00:00 22.8 8 Oeste 17 Oeste 0 963.5 -0.6 68
2018-09-05 12:00:00 20.3 3 Norte 15 Oeste 0 963.8 -0.2 78
2018-09-05 11:00:00 18 6 Noroeste 11 Oeste 0 964.3 0.5 87
2018-09-05 10:00:00 17.1 3 Norte 5 Noroeste 0 964.1 0.9 88
2018-09-05 09:00:00 16 2 Este 8 Noroeste 3.3 964 0.8 93
2018-09-05 08:00:00 16.1 5 Oeste 9 Oeste 0.7 963.8 0.8 93
2018-09-05 07:00:00 16 0 Calma 8 Sur 0.1 963.2 0.3 92
2018-09-05 06:00:00 16 0 Calma 4 Sudoeste 0 963.2 0.2 92
2018-09-05 05:00:00 16.2 0 Calma 5 Noroeste 0 963 -0.6 90
2018-09-05 04:00:00 16.5 4 Oeste 8 Noroeste 0 962.9 -1.1 92
2018-09-05 03:00:00 16.6 5 Oeste 11 Noroeste 0 963 -1 92
2018-09-05 02:00:00 16.4 10 Norte 24 Nordeste 0 963.6 0.5 89
2018-09-05 01:00:00 16.6 14 Norte 22 Nordeste 0.8 964 1.1 89
2018-09-05 00:00:00 17.2 17 Noroeste 32 Noroeste 0.5 964 2.3 91
2018-09-04 23:00:00 18.9 18 Noroeste 28 Noroeste 0 963.1 1.7 75
2018-09-04 22:00:00 19.7 18 Noroeste 35 Norte 0 962.9 2.1 75
2018-09-04 21:00:00 20.2 22 Noroeste 33 Norte 0 961.7 1.3 75
2018-09-04 20:00:00 21.9 23 Noroeste 37 Noroeste 0 961.4 0.9 70
2018-09-04 19:00:00 24.1 26 Noroeste 39 Noroeste 0 960.8 0.2 61
2018-09-04 18:00:00 25.2 27 Norte 37 Noroeste 0 960.4 -- 56
2018-09-04 17:00:00 26.3 22 Norte 33 Noroeste 0 960.5 -0.5 50
2018-09-04 16:00:00 28.1 23 Norte 32 Norte 0 960.6 -1.1 44
2018-09-04 15:00:00 -- -- -- -- -- -- -- -- --
2018-09-04 14:00:00 26.8 7 Norte 24 Noroeste 0 961 -1.8 45
2018-09-04 13:00:00 26.1 10 Noroeste 18 Noroeste 0 961.7 -1.2 47
2018-09-04 12:00:00 23.5 8 Norte 17 Oeste 0 962.3 -0.5 51
2018-09-04 11:00:00 20.7 7 Noroeste 13 Noroeste 0 962.8 0.3 56
2018-09-04 10:00:00 18.4 7 Oeste 9 Oeste 0 962.9 0.6 61
2018-09-04 09:00:00 15.9 3 Sudeste 8 Sudeste 0 962.8 0.4 71
2018-09-04 08:00:00 14.7 7 Oeste 9 Oeste 0 962.5 0 73
2018-09-04 07:00:00 15.7 3 Sudeste -- -- 0 962.3 -0.6 70
2018-09-04 06:00:00 15.3 2 Sudeste 8 Oeste 0 962.4 -0.2 73
2018-09-04 05:00:00 15.7 6 Oeste 11 Noroeste 0 962.5 -0.3 71
2018-09-04 04:00:00 16.8 8 Norte 11 Norte 0 962.9 -0.2 67
2018-09-04 03:00:00 16.9 9 Noroeste 18 Norte 0 962.6 -0.3 67
2018-09-04 02:00:00 17 10 Norte 22 Norte 0 962.8 0.2 69
2018-09-04 01:00:00 17.8 20 Norte 28 Norte 0 963.1 0.7 60
2018-09-04 00:00:00 18.1 15 Norte 33 Noroeste 0 962.9 1.5 55
2018-09-03 23:00:00 18.5 20 Noroeste 32 Noroeste 0 962.6 1.7 55
2018-09-03 22:00:00 19.1 22 Norte 41 Norte 0 962.4 2 60
2018-09-03 21:00:00 20.5 24 Noroeste 35 Norte 0 961.4 1 63
2018-09-03 20:00:00 22.4 23 Norte 35 Norte 0 960.9 0.5 60
2018-09-03 19:00:00 24.6 26 Norte 37 Noroeste 0 960.4 -0.4 52
2018-09-03 18:00:00 26.5 27 Norte 37 Norte 0 960.4 -0.9 42
2018-09-03 17:00:00 28.5 24 Norte 33 Norte 0 960.4 -1.2 35
2018-09-03 16:00:00 29.4 19 Norte 30 Norte 0 960.8 -1.7 28
2018-09-03 15:00:00 28 6 Nordeste 18 Norte 0 961.3 -1.9 29
2018-09-03 14:00:00 26.1 12 Norte 21 Norte 0 961.6 -1.9 35
2018-09-03 13:00:00 24.8 4 Norte 17 Nordeste 0 962.5 -0.7 37
2018-09-03 12:00:00 24 6 Noroeste 13 Noroeste 0 963.2 -0.1 42
2018-09-03 11:00:00 21.8 4 Norte 9 Oeste 0 963.5 0.2 49
2018-09-03 10:00:00 18.1 4 Nordeste 9 Nordeste 0 963.2 0.4 59
2018-09-03 09:00:00 15.4 4 Nordeste 8 Nordeste 0 963.3 0.5 70
2018-09-03 08:00:00 12.1 4 Nordeste 11 Este 0 963.3 0.6 82
2018-09-03 07:00:00 12.9 3 Nordeste 5 Este 0 962.8 0 81
2018-09-03 06:00:00 12.8 4 Sudeste 11 Nordeste 0 962.8 -0.1 82
2018-09-03 05:00:00 14.1 3 Noroeste 11 Nordeste 0 962.7 -0.4 80
2018-09-03 04:00:00 14.3 5 Este 9 Sudeste 0 962.8 -0.4 78
2018-09-03 03:00:00 14.8 7 Este 11 Sudeste 0 962.9 -0.4 77
2018-09-03 02:00:00 16.2 4 Sudeste 8 Sudeste 0 963.1 -0.3 70
2018-09-03 01:00:00 17.7 3 Este 8 Este 0 963.2 0 68
2018-09-03 00:00:00 18.7 0 Calma 8 Noroeste 0 963.3 0.8 66
2018-09-02 23:00:00 19.8 7 Norte 21 Norte 0 963.4 1.5 62
2018-09-02 22:00:00 21.3 5 Noroeste 15 Noroeste 0 963.2 1.2 59
2018-09-02 21:00:00 23.6 12 Norte 24 Norte 0 962.5 0.5 49
2018-09-02 20:00:00 26.8 15 Norte 30 Norte 0 961.9 -0.5 31
2018-09-02 19:00:00 28.5 21 Norte 32 Nordeste 0 962 -0.9 32
2018-09-02 18:00:00 30.5 18 Norte 30 Norte 0 962 -1.6 30
2018-09-02 17:00:00 31.3 13 Norte 22 Norte 0 962.4 -2 25
2018-09-02 16:00:00 30.5 8 Norte 21 Nordeste 0 962.9 -2.1 26
2018-09-02 15:00:00 29.7 11 Nordeste 18 Norte 0 963.6 -2.3 16
2018-09-02 14:00:00 28.4 5 Oeste 13 Oeste 0 964.4 -2 27
2018-09-02 13:00:00 25.8 4 Este 13 Sudeste 0 965 -1.6 38
2018-09-02 12:00:00 23.4 5 Este 11 Sudeste 0 965.9 -0.7 40
2018-09-02 11:00:00 19.9 5 Este -- -- -- 966.4 -0.1 51
2018-09-02 10:00:00 17.1 5 Norte 13 Nordeste 0 966.6 0.2 60
2018-09-02 09:00:00 13.7 5 Nordeste 9 Este 0 966.6 0.2 71
2018-09-02 08:00:00 11.1 2 Nordeste 8 Sur 0 966.5 0 86
2018-09-02 07:00:00 10.8 5 Sudeste 9 Sudeste 0 966.4 -0.3 85
2018-09-02 06:00:00 12.1 7 Sudeste 11 Sur 0 966.4 -0.4 82
2018-09-02 05:00:00 12.5 8 Este 9 Sudeste 0 966.5 -0.5 82
2018-09-02 04:00:00 14.3 5 Oeste 13 Noroeste 0 966.7 -0.3 74
2018-09-02 03:00:00 15.1 9 Noroeste 15 Noroeste 0 966.8 -0.6 73
2018-09-02 02:00:00 16.1 9 Oeste 15 Noroeste 0 967 -0.3 73
2018-09-02 01:00:00 17.1 9 Noroeste 21 Noroeste 0 967 -0.1 74
2018-09-02 00:00:00 18.1 14 Noroeste 22 Noroeste 0 967.4 0.7 75
2018-09-01 23:00:00 18.5 12 Noroeste 18 Noroeste 0 967.3 1 74
2018-09-01 22:00:00 19.6 12 Noroeste 21 Noroeste 0 967.1 1 69
2018-09-01 21:00:00 20.9 17 Norte 33 Nordeste 0 966.7 0.4 64
2018-09-01 20:00:00 23.4 17 Norte 32 Norte 0 966.3 -0.2 48
2018-09-01 19:00:00 24.9 18 Norte 32 Norte 0 966.1 -0.8 48
2018-09-01 18:00:00 26.2 17 Norte 37 Norte 0 966.3 -1.1 45
2018-09-01 17:00:00 27.6 25 Noroeste 35 Noroeste 0 966.5 -1.2 42
2018-09-01 16:00:00 27.8 22 Norte 35 Noroeste 0 966.9 -1.3 40
2018-09-01 15:00:00 28.5 22 Noroeste 32 Noroeste 0 967.4 -1.5 41
2018-09-01 14:00:00 27.4 17 Noroeste 32 Norte 0 967.7 -1.4 43
2018-09-01 13:00:00 26.1 20 Noroeste 32 Noroeste 0 968.2 -0.9 48
2018-09-01 12:00:00 24 18 Noroeste 30 Noroeste 0 968.9 0 55
2018-09-01 11:00:00 22.4 20 Noroeste 30 Noroeste 0 969.1 0.3 60
2018-09-01 10:00:00 20.4 15 Noroeste 26 Norte 0 969.1 0.5 66
2018-09-01 09:00:00 18.4 14 Norte 21 Norte 0 968.9 0.5 75
2018-09-01 08:00:00 15.9 13 Norte 21 Norte 0 968.8 0.4 85
2018-09-01 07:00:00 15.4 8 Norte 28 Norte 0 968.6 -0.2 85
2018-09-01 06:00:00 16.1 18 Norte 28 Norte 0 968.4 -0.7 82
2018-09-01 05:00:00 16.4 15 Norte 24 Noroeste 0 968.4 -0.8 83
2018-09-01 04:00:00 15.6 13 Norte 18 Norte 0 968.8 -0.4 86
2018-09-01 03:00:00 16.8 9 Noroeste 21 Norte 0 969.1 -0.3 82
2018-09-01 02:00:00 16.7 12 Norte 24 Norte 0 969.2 -0.3 84
2018-09-01 01:00:00 17.1 15 Norte 26 Noroeste 0 969.2 0.1 81
2018-09-01 00:00:00 17.9 17 Norte 28 Norte 0 969.4 1 76
2018-08-31 23:00:00 18.4 16 Noroeste 26 Norte 0 969.5 1.5 75
2018-08-31 22:00:00 18.6 19 Norte 32 Norte 0 969.1 1 75
2018-08-31 21:00:00 19.4 24 Norte 35 Norte 0 968.4 0.4 72
2018-08-31 20:00:00 20.7 26 Norte 35 Norte 0 968 0.1 65
2018-08-31 19:00:00 22.3 24 Norte 42 Norte 0 968.1 0.1 58
2018-08-31 18:00:00 22.8 28 Norte 41 Norte 0 968 -0.2 55
2018-08-31 17:00:00 24.3 24 Norte 42 Noroeste 0 967.9 -0.4 51
2018-08-31 16:00:00 24.4 30 Norte 42 Norte 0 968 -0.6 49
2018-08-31 15:00:00 25.2 28 Noroeste 46 Noroeste 0 968.2 -0.6 46
2018-08-31 14:00:00 24.7 26 Norte 42 Norte 0 968.3 -0.7 47
2018-08-31 13:00:00 24.5 21 Norte 41 Norte 0 968.6 0 46
2018-08-31 12:00:00 22.3 16 Norte 32 Norte 0 968.8 0.2 54
2018-08-31 11:00:00 21.3 21 Norte 32 Norte 0 969 0.7 59
2018-08-31 10:00:00 20.1 18 Norte 32 Norte 0 968.6 0.4 63
2018-08-31 09:00:00 18.2 17 Norte 24 Norte 0 968.6 0.3 72
2018-08-31 08:00:00 15.9 15 Norte 22 Noroeste 0 968.3 0 83
2018-08-31 07:00:00 15.9 13 Noroeste 22 Noroeste 0 968.2 -0.3 83
2018-08-31 06:00:00 15.4 12 Noroeste 15 Noroeste 0 968.3 -0.7 85
2018-08-31 05:00:00 15.4 9 Noroeste 17 Norte 0 968.3 -0.9 85
2018-08-31 04:00:00 15.9 12 Noroeste 21 Noroeste 0 968.5 -0.6 83
2018-08-31 03:00:00 15.9 15 Norte 21 Noroeste 0 969 -0.3 84
2018-08-31 02:00:00 15.8 13 Norte 21 Noroeste 0 969.2 -0.2 85
2018-08-31 01:00:00 16 14 Noroeste 24 Norte 0 969.1 -0.1 85
2018-08-31 00:00:00 16.3 13 Noroeste 18 Noroeste 0 969.3 0.7 84
2018-08-30 23:00:00 17.1 13 Noroeste 22 Noroeste 0 969.4 1.3 80
2018-08-30 22:00:00 18 16 Noroeste 28 Norte 0 969.2 1.4 78
2018-08-30 21:00:00 19.1 21 Norte 30 Norte 0 968.6 1.1 73
2018-08-30 20:00:00 20.8 25 Norte 35 Norte 0 968.1 0.7 65
2018-08-30 19:00:00 22.5 23 Norte 39 Norte 0 967.8 0.1 59
2018-08-30 18:00:00 23.5 29 Norte 41 Norte 0 967.5 -0.5 54
2018-08-30 17:00:00 24.4 25 Norte 37 Norte 0 967.4 -0.9 52
2018-08-30 16:00:00 25.8 25 Norte 37 Norte 0 967.7 -1.2 46
2018-08-30 15:00:00 26.6 22 Noroeste 32 Norte 0 968 -1.6 45
2018-08-30 14:00:00 25.2 19 Noroeste 28 Norte 0 968.3 -1.6 49
2018-08-30 13:00:00 24 14 Noroeste 22 Noroeste 0 968.9 -0.5 52
2018-08-30 12:00:00 21.1 11 Norte 18 Nordeste 0 969.6 0.2 60
2018-08-30 11:00:00 19.3 13 Norte 28 Noroeste 0 969.9 0.5 64
2018-08-30 10:00:00 18.8 17 Noroeste 24 Norte 0 969.4 0.1 66
2018-08-30 09:00:00 17.3 15 Noroeste 21 Noroeste 0 969.4 0.2 73
2018-08-30 08:00:00 17 13 Noroeste 18 Noroeste 0 969.4 -0.1 75
2018-08-30 07:00:00 17.1 15 Norte 22 Norte 0 969.3 -0.7 75
2018-08-30 06:00:00 17.2 13 Norte 26 Norte 0 969.2 -1.3 73
2018-08-30 05:00:00 17.3 18 Norte 30 Norte 0 969.5 -1.2 73
2018-08-30 04:00:00 17.5 19 Norte 33 Norte 0 970 -0.6 72
2018-08-30 03:00:00 17.5 19 Norte 30 Norte 0 970.5 0 76
2018-08-30 02:00:00 17.4 21 Norte 32 Norte 0 970.7 0.3 78
2018-08-30 01:00:00 17.5 23 Norte 32 Norte 0 970.6 0.3 77
2018-08-30 00:00:00 17.4 20 Norte 35 Norte 0 970.5 1.1 80
2018-08-29 23:00:00 17.6 20 Norte 30 Norte 0 970.4 1.9 81
2018-08-29 22:00:00 18.1 20 Noroeste 28 Noroeste 0 970.3 2.6 80
2018-08-29 21:00:00 18.1 23 Noroeste 41 Noroeste 0 969.4 2 79
2018-08-29 20:00:00 19.1 29 Noroeste 41 Noroeste 0 968.5 1.1 79
2018-08-29 19:00:00 23 30 Norte 39 Norte 0 967.7 0.5 65
2018-08-29 18:00:00 24.9 26 Norte 37 Nordeste 0 967.4 0.3 57
2018-08-29 17:00:00 25.9 28 Norte 39 Norte 0 967.4 0.2 52
2018-08-29 16:00:00 26.6 26 Norte 37 Noroeste 0 967.2 -0.4 50
2018-08-29 15:00:00 26.8 23 Norte 35 Norte 0 967.1 -0.9 50
2018-08-29 14:00:00 26.5 21 Norte 32 Norte 0 967.2 -0.5 50
2018-08-29 13:00:00 24.9 19 Norte 33 Norte 0 967.6 0.2 54
2018-08-29 12:00:00 23.8 20 Norte 32 Norte 0 968 0.9 60
2018-08-29 11:00:00 21.7 17 Norte 26 Norte 0 967.7 1.3 70
2018-08-29 10:00:00 20.5 3 Este 9 Sudeste 0 967.4 1.7 72
2018-08-29 09:00:00 17.8 5 Sudeste 9 Sudeste 0 967.1 1.7 81
2018-08-29 08:00:00 14.4 -- -- -- -- 0 966.4 1.2 89
2018-08-29 07:00:00 14.4 5 Este 11 Este 0 965.7 0.5 90
2018-08-29 06:00:00 15.1 6 Nordeste 11 Nordeste 0 965.4 -0.1 89
2018-08-29 05:00:00 14.8 8 Sudeste 11 Este 0 965.2 -0.7 89
2018-08-29 04:00:00 15.7 7 Este 15 Nordeste 0 965.2 -0.3 89
2018-08-29 03:00:00 16.4 6 Este 9 Este 0 965.5 0.2 86
2018-08-29 02:00:00 17.5 6 Norte 13 Norte 0 965.9 0.6 87
2018-08-29 01:00:00 17.8 6 Este 9 Este 0 965.5 2 82
2018-08-29 00:00:00 17.5 6 Nordeste 24 Nordeste 0 965.3 3.9 82
2018-08-28 23:00:00 17.7 18 Este 42 Nordeste 0.1 965.3 6.2 83
2018-08-28 22:00:00 18.8 10 Este 54 Norte 0.6 963.5 4.7 87
2018-08-28 21:00:00 23.4 31 Norte 67 Norte 0 961.4 2.6 64
2018-08-28 20:00:00 29.3 6 Norte 32 Sudeste 0 959.1 -0.6 43
2018-08-28 19:00:00 32.1 32 Sur 74 Sudoeste 0 958.8 -2 33
2018-08-28 18:00:00 34.2 29 Sudeste 48 Sudeste 0 958.8 -2.7 30
2018-08-28 17:00:00 35 27 Sur 42 Sudeste 0 959.7 -2.1 27
2018-08-28 16:00:00 35.1 23 Sur 37 Sur 0 960.8 -2 31
2018-08-28 15:00:00 34.7 13 Sudeste 32 Sur 0 961.5 -2.2 32
2018-08-28 14:00:00 34 13 Sur 42 Sudeste 0 961.8 -2.3 34
2018-08-28 13:00:00 32.3 15 Sudeste 30 Sur 0 962.8 -1.5 40
2018-08-28 12:00:00 30.2 9 Sur 17 Sur 0 963.7 -0.7 46
2018-08-28 11:00:00 26.3 5 Nordeste 11 Norte 0 964.1 -0.1 55
2018-08-28 10:00:00 23 5 Nordeste 11 Nordeste 0 964.3 0.7 63
2018-08-28 09:00:00 18.4 5 Nordeste 9 Nordeste 0 964.4 0.7 79
2018-08-28 08:00:00 16 2 Este 8 Nordeste 0 964.2 0.4 86
2018-08-28 07:00:00 15.6 5 Sudoeste 8 Sudoeste 0 963.6 -0.4 87
2018-08-28 06:00:00 16.3 2 Sudoeste 5 Sudoeste 0 963.7 -0.7 84
2018-08-28 05:00:00 16.9 0 Calma 5 Nordeste 0 963.8 -0.7 82
2018-08-28 04:00:00 17.6 3 Nordeste 8 Sudeste 0 964 -0.4 80
2018-08-28 03:00:00 18.3 4 Este 9 Sudeste 0 964.4 0.1 78
2018-08-28 02:00:00 19.1 0 Calma 5 Este 0 964.5 0 77
2018-08-28 01:00:00 19.8 0 Calma 8 Oeste 0 964.4 0 76
2018-08-28 00:00:00 21 4 Noroeste 8 Noroeste 0 964.3 0.4 74
2018-08-27 23:00:00 21.8 5 Oeste 9 Oeste 0 964.5 1.2 72
2018-08-27 22:00:00 23.9 7 Oeste 11 Norte 0 964.4 1.7 65
2018-08-27 21:00:00 25.7 9 Noroeste 26 Noroeste 0 963.9 1.2 60
2018-08-27 20:00:00 28.5 20 Noroeste 28 Noroeste 0 963.3 0.4 52
2018-08-27 19:00:00 31.6 19 Norte 24 Noroeste 0 962.7 -0.8 39
2018-08-27 18:00:00 32.7 8 Norte 22 Norte 0 962.7 -1.3 27
2018-08-27 17:00:00 33.1 10 Norte 17 Norte 0 962.9 -1.5 27
2018-08-27 16:00:00 33 8 Oeste 18 Oeste 0 963.5 -1.3 28
2018-08-27 15:00:00 31.9 9 Oeste 18 Oeste 0 964 -1.4 31
2018-08-27 14:00:00 30.2 6 Noroeste 18 Oeste 0 964.4 -1.1 33
2018-08-27 13:00:00 27.5 5 Nordeste 13 Noroeste 0 964.8 -0.8 37
2018-08-27 12:00:00 25.4 6 Noroeste 11 Norte 0 965.4 0 46
2018-08-27 11:00:00 22.4 5 Oeste 13 Nordeste 0 965.5 0.3 56
2018-08-27 10:00:00 18.7 5 Nordeste 13 Nordeste 0 965.6 0.8 68
2018-08-27 09:00:00 16.5 5 Nordeste 9 Nordeste 0 965.4 1 74
2018-08-27 08:00:00 13.8 4 Este 9 Nordeste 0 965.2 0.6 85
2018-08-27 07:00:00 13.6 6 Nordeste 13 Nordeste 0 964.8 0.2 85
2018-08-27 06:00:00 13.9 4 Este 9 Nordeste 0 964.4 -0.3 85
2018-08-27 05:00:00 14.1 2 Sur 8 Este 0 964.6 -0.2 86
2018-08-27 04:00:00 15 3 Nordeste 9 Este 0 964.6 -0.3 85
2018-08-27 03:00:00 15.6 6 Sudeste 8 Sudeste 0 964.7 -0.1 82
2018-08-27 02:00:00 16.7 6 Sudeste 9 Sur 0 964.8 0.4 79
2018-08-27 01:00:00 17.7 5 Sudeste 13 Norte 0 964.9 0.9 75
2018-08-27 00:00:00 18.4 9 Noroeste 17 Noroeste 0 964.8 1.6 77
2018-08-26 23:00:00 19.2 9 Noroeste 15 Noroeste 0 964.4 1.6 73
2018-08-26 22:00:00 21.4 8 Noroeste 17 Norte 0 964 1.5 60
2018-08-26 21:00:00 22.7 6 Norte 22 Nordeste 0 963.2 1.1 54
2018-08-26 20:00:00 24.6 15 Norte 30 Norte 0 962.8 0.4 53
2018-08-26 19:00:00 26.3 19 Norte 32 Norte 0 962.5 -0.4 48
2018-08-26 18:00:00 28.8 15 Noroeste 24 Norte 0 962.1 -1.5 41
2018-08-26 17:00:00 28.6 8 Norte 24 Norte 0 962.4 -1.6 36
2018-08-26 16:00:00 28.4 6 Oeste 17 Oeste 0 962.9 -1.4 34
2018-08-26 15:00:00 27.5 7 Oeste 18 Noroeste 0 963.6 -1.5 37
2018-08-26 14:00:00 25.4 5 Noroeste 18 Sudeste 0 964 -1.4 40
2018-08-26 13:00:00 23.8 5 Nordeste 17 Norte 0 964.3 -1.1 43
2018-08-26 12:00:00 22 6 Norte 17 Nordeste 0 965.1 -0.4 51
2018-08-26 11:00:00 20.4 4 Norte 15 Este 0 965.4 0 57
2018-08-26 10:00:00 17.9 5 Norte 9 Norte 0 965.4 0.2 67
2018-08-26 09:00:00 15.4 3 Sudoeste 9 Sudeste 0 965.5 0.4 77
2018-08-26 08:00:00 12.8 6 Noroeste 11 Noroeste 0 965.4 0.3 86
2018-08-26 07:00:00 12.8 9 Norte 17 Noroeste 0 965.2 -0.1 87
2018-08-26 06:00:00 13.8 14 Noroeste 18 Noroeste 0 965.1 -0.8 82
2018-08-26 05:00:00 13.2 8 Oeste 17 Noroeste 0 965.1 -1.3 85
2018-08-26 04:00:00 13.8 12 Noroeste 21 Noroeste 0 965.3 -1.3 85
2018-08-26 03:00:00 14.1 13 Norte 26 Norte 0 965.9 -1 81
2018-08-26 02:00:00 14.3 14 Noroeste 24 Norte 0 966.4 -0.4 79
2018-08-26 01:00:00 14.2 9 Norte 21 Norte 0 966.6 -0.3 77
2018-08-26 00:00:00 14.5 12 Noroeste 21 Norte 0 966.9 0.8 75
2018-08-25 23:00:00 15 13 Norte 24 Norte 0 966.8 1 73
2018-08-25 22:00:00 15.9 16 Norte 37 Norte 0 966.9 1.3 68
2018-08-25 21:00:00 16.7 24 Norte 42 Norte 0 966.1 0.6 64
2018-08-25 20:00:00 17.8 26 Norte 41 Norte 0 965.8 0 58
2018-08-25 19:00:00 18.6 25 Norte 45 Norte 0 965.6 -0.2 53
2018-08-25 18:00:00 20.4 25 Norte 39 Norte 0 965.5 -0.5 49
2018-08-25 17:00:00 21.2 23 Norte 42 Norte 0 965.8 -0.4 50
2018-08-25 16:00:00 21.3 26 Norte 45 Noroeste 0 965.8 -0.9 48
2018-08-25 15:00:00 22.1 27 Noroeste 41 Norte 0 966 -1.1 49
2018-08-25 14:00:00 21.7 22 Norte 37 Norte 0 966.2 -1 46
2018-08-25 13:00:00 20.7 21 Norte 39 Norte 0 966.7 -0.3 48
2018-08-25 12:00:00 19.5 22 Norte 37 Nordeste 0 967.1 0.2 56
2018-08-25 11:00:00 18.8 19 Norte 30 Norte 0 967.2 0.5 61
2018-08-25 10:00:00 17.4 19 Noroeste 26 Norte 0 967 0.3 67
2018-08-25 09:00:00 16.1 11 Noroeste 17 Norte 0 966.9 0.2 75
2018-08-25 08:00:00 13.6 6 Noroeste 17 Norte 0 966.7 -0.3 83
2018-08-25 07:00:00 14 9 Norte 17 Nordeste 0 966.7 -0.4 80
2018-08-25 06:00:00 13.6 10 Norte 15 Norte 0 966.7 -0.8 85
2018-08-25 05:00:00 13.9 8 Norte 13 Norte 0 967 -0.9 84
2018-08-25 04:00:00 13.4 6 Sudoeste 15 Noroeste 0 967.1 -1 85
2018-08-25 03:00:00 14.5 12 Noroeste 17 Norte 0 967.5 -0.8 83
2018-08-25 02:00:00 15 13 Norte 22 Norte 0 967.9 -0.8 81
2018-08-25 01:00:00 15.3 16 Norte 26 Norte 0 968.1 -0.7 81
2018-08-25 00:00:00 16 15 Norte 22 Norte 0 968.3 -0.1 77
2018-08-24 23:00:00 16.8 12 Norte 26 Norte 0 968.7 0.3 73
2018-08-24 22:00:00 16.9 17 Norte 30 Norte 0 968.8 0.4 72
2018-08-24 21:00:00 17.8 18 Norte 28 Norte 0 968.4 0.1 70
2018-08-24 20:00:00 18.4 21 Norte 39 Norte 0 968.4 0 68
2018-08-24 19:00:00 19.6 26 Norte 39 Norte 0 968.4 0.1 64
2018-08-24 18:00:00 20.3 18 Norte 39 Norte 0 968.3 -0.2 62
2018-08-24 17:00:00 20.5 27 Norte 41 Norte 0 968.4 -0.1 63
2018-08-24 16:00:00 23.6 29 Norte 46 Norte 0 968.3 -0.2 56
2018-08-24 15:00:00 23.4 29 Norte 41 Norte 0 968.5 -0.1 58
2018-08-24 14:00:00 23.1 28 Norte 46 Norte 0 968.5 -0.3 59
2018-08-24 13:00:00 22.9 27 Norte 37 Norte 0.1 968.5 0 64
2018-08-24 12:00:00 22.1 15 Noroeste 32 Norte 0 968.6 0.4 69
2018-08-24 11:00:00 20.9 21 Noroeste 32 Noroeste 0 968.8 0.8 71
2018-08-24 10:00:00 19.7 12 Norte 21 Norte 0 968.5 0.6 72
2018-08-24 09:00:00 18.7 10 Norte 17 Norte 0 968.2 0.5 75
2018-08-24 08:00:00 18 12 Norte 17 Noroeste 0 968 0.1 77
2018-08-24 07:00:00 17.5 7 Noroeste 11 Noroeste 0 967.9 -0.1 78
2018-08-24 06:00:00 17.1 6 Noroeste 15 Norte 0 967.7 -0.5 80
2018-08-24 05:00:00 18.5 10 Norte 22 Norte 0 967.9 -0.7 75
2018-08-24 04:00:00 18.8 12 Norte 24 Norte 0 968 -0.8 74
2018-08-24 03:00:00 18.6 13 Norte 26 Norte 0 968.2 -0.6 74
2018-08-24 02:00:00 19.6 14 Norte 26 Norte 0 968.6 -0.2 75
2018-08-24 01:00:00 19.7 17 Norte 26 Noroeste 0 968.8 0.3 75
2018-08-24 00:00:00 19.4 19 Norte 30 Norte 0 968.8 1.3 78
2018-08-23 23:00:00 20.3 17 Norte 28 Norte 0 968.8 2.1 74
2018-08-23 22:00:00 21 19 Norte 32 Norte 0 968.5 2.1 71
2018-08-23 21:00:00 21.2 21 Norte 35 Norte 0 967.5 1.2 72
2018-08-23 20:00:00 22.1 25 Norte 35 Norte 0 966.7 0.8 68
2018-08-23 19:00:00 23.9 28 Norte 41 Norte 0 966.4 0.5 61
2018-08-23 18:00:00 24.9 23 Norte 42 Norte 0 966.3 0 58
2018-08-23 17:00:00 26.1 31 Norte 48 Norte 0 965.9 -0.7 54
2018-08-23 16:00:00 27.2 28 Norte 42 Norte 0 965.9 -1 50
2018-08-23 15:00:00 27.6 22 Norte 35 Noroeste 0 966.3 -0.8 51
2018-08-23 14:00:00 27.3 21 Norte 33 Noroeste 0 966.6 -0.4 53
2018-08-23 13:00:00 26 26 Noroeste 35 Noroeste 0 966.9 0.2 60
2018-08-23 12:00:00 25.5 19 Noroeste 28 Oeste 0 967.1 0.5 64
2018-08-23 11:00:00 22.5 17 Noroeste 24 Noroeste 0 967 0.8 74
2018-08-23 10:00:00 21.1 14 Noroeste 21 Noroeste 0 966.7 0.8 79
2018-08-23 09:00:00 20.2 14 Noroeste 22 Norte 0 966.6 1 81
2018-08-23 08:00:00 20 13 Norte 22 Norte 0 966.2 0.3 82
2018-08-23 07:00:00 20.1 13 Noroeste 18 Noroeste 0 965.9 -0.3 82
2018-08-23 06:00:00 20.1 12 Noroeste 15 Norte 0 965.6 -0.8 83
2018-08-23 05:00:00 20.4 10 Noroeste 17 Noroeste 0 965.9 -0.5 82
2018-08-23 04:00:00 20.7 10 Noroeste 18 Noroeste 0 966.2 0.1 81
2018-08-23 03:00:00 20.9 12 Noroeste 18 Noroeste 0 966.4 0.6 79
2018-08-23 02:00:00 20.8 9 Oeste 13 Oeste 0 966.4 0.6 82
2018-08-23 01:00:00 21 8 Oeste 22 Norte 0 966.1 0.7 81
2018-08-23 00:00:00 21.9 13 Noroeste 24 Norte 0 965.8 1.2 83